Hauptseite
METAR-TAF:

METAR-TAF

Flughäfen :

Flughafen Deauville

Deauville, Frankreich

Breite: 49-21-55N, Länge: 000-09-16E, Höhe: 146 m

Beobachtung

Neuester Wetterbericht von vor 32 Minuten, um 06:30 UTC
Wind 2 kt aus unterschiedlichen Richtungen
Temperatur 16°C
Luftfeuchtigkeit 82%
Luftdruck 1019 hPa
Sichtweite 10 km oder mehr
keine Wolken unter 1500 m und keine Kumulonimbus oder Gewitterwolken

METAR: LFRG 180630Z AUTO VRB02KT CAVOK 16/13 Q1019 NOSIG

Zeit: 09:02 (07:02 UTC)

Prognose

Neuester Wetterbericht von vor 2 Stunden und 2 Minuten, um 05:00 UTC
Gültige Prognose vom 18 um 06 UTC bis 18 um 15 UTC
Wind 3 kt aus unterschiedlichen Richtungen
Sichtweite 10 km oder mehr
keine Wolken unter 1500 m und keine Kumulonimbus oder Gewitterwolken
Übergehend zu
vom 18 um 12 UTC bis 18 um 14 UTC
Wind 10 kt aus Nord/Nordwest

TAF: LFRG 180500Z 1806/1815 VRB03KT CAVOK BECMG 1812/1814 34010KT

Wetterbeobachtungen und Prognosen von mehr als 4000 Flughäfen (METAR und TAF Bericht).

Die verfügbaren Stationen werden durch gelbe und rote Markierungen auf der Karte dargestellt.

Führen Sie die Maus auf sie, um den Namen der Station zu sehen.

Darauf klicken, um die Beobachtung von Wetterbeobachtungen und Prognosen zu sehen.

Um die Karte zu ändern : klicken Sie auf den grünen Tasten mit einem schwarzen Kreuz Zum Vergrößern, auf den grünen Button mit einem Gedankenstrich zu verkleinern, oder auf die grünen Pfeile für benachbarte Karten.


METAR-TAF: